sensor_id;sensor_type;location;lat;lon;timestamp;pressure;altitude;pressure_sealevel;temperature;humidity
53689;BME280;39583;54.682;30.662;2024-03-08T05:32:43;99862.06;;;-4.93;90.76
53689;BME280;39583;54.682;30.662;2024-03-08T05:35:15;99840.09;;;-4.92;91.01
53689;BME280;39583;54.682;30.662;2024-03-08T05:37:44;99853.59;;;-4.61;91.32
53689;BME280;39583;54.682;30.662;2024-03-08T05:40:12;99855.06;;;-4.46;91.42
53689;BME280;39583;54.682;30.662;2024-03-08T05:42:45;99860.25;;;-4.33;91.42
53689;BME280;39583;54.682;30.662;2024-03-08T05:45:20;99856.94;;;-4.24;91.34
53689;BME280;39583;54.682;30.662;2024-03-08T05:47:50;99849.41;;;-4.18;91.33
53689;BME280;39583;54.682;30.662;2024-03-08T05:50:19;99844.41;;;-4.09;91.25
53689;BME280;39583;54.682;30.662;2024-03-08T05:52:46;99843.84;;;-4.02;91.19
53689;BME280;39583;54.682;30.662;2024-03-08T05:55:18;99848.25;;;-3.91;91.26
53689;BME280;39583;54.682;30.662;2024-03-08T05:58:02;99848.13;;;-3.78;91.19
53689;BME280;39583;54.682;30.662;2024-03-08T06:00:31;99856.41;;;-3.72;90.69
53689;BME280;39583;54.682;30.662;2024-03-08T06:02:58;99859.16;;;-3.62;91.25
53689;BME280;39583;54.682;30.662;2024-03-08T06:05:26;99849.69;;;-3.53;90.58
53689;BME280;39583;54.682;30.662;2024-03-08T06:07:54;99861.78;;;-3.51;90.13
53689;BME280;39583;54.682;30.662;2024-03-08T06:10:21;99854.94;;;-3.42;90.17
53689;BME280;39583;54.682;30.662;2024-03-08T06:12:49;99859.88;;;-3.38;89.81
53689;BME280;39583;54.682;30.662;2024-03-08T06:15:18;99852.56;;;-3.34;89.82
53689;BME280;39583;54.682;30.662;2024-03-08T06:17:55;99853.25;;;-3.32;89.43
53689;BME280;39583;54.682;30.662;2024-03-08T06:20:23;99850.63;;;-3.21;89.39
53689;BME280;39583;54.682;30.662;2024-03-08T06:22:53;99854.19;;;-3.11;89.46
53689;BME280;39583;54.682;30.662;2024-03-08T06:25:21;99853.56;;;-3.03;89.15
53689;BME280;39583;54.682;30.662;2024-03-08T06:27:49;99860.38;;;-3.01;88.52
53689;BME280;39583;54.682;30.662;2024-03-08T06:30:17;99857.25;;;-2.94;88.73
53689;BME280;39583;54.682;30.662;2024-03-08T06:32:45;99855.91;;;-2.89;88.68
53689;BME280;39583;54.682;30.662;2024-03-08T06:35:12;99852.66;;;-2.81;88.33
53689;BME280;39583;54.682;30.662;2024-03-08T06:37:43;99850.97;;;-2.71;88.31
53689;BME280;39583;54.682;30.662;2024-03-08T06:40:11;99856.41;;;-2.63;88.01
53689;BME280;39583;54.682;30.662;2024-03-08T06:42:41;99853.03;;;-2.54;87.45
53689;BME280;39583;54.682;30.662;2024-03-08T06:45:09;99857.91;;;-2.49;87.35
53689;BME280;39583;54.682;30.662;2024-03-08T06:47:37;99843.97;;;-2.40;87.18
53689;BME280;39583;54.682;30.662;2024-03-08T06:50:05;99842.38;;;-2.31;87.27
53689;BME280;39583;54.682;30.662;2024-03-08T06:52:33;99833.03;;;-2.15;87.05
53689;BME280;39583;54.682;30.662;2024-03-08T06:55:01;99830.25;;;-1.92;86.70
53689;BME280;39583;54.682;30.662;2024-03-08T06:57:29;99829.06;;;-1.79;85.82
53689;BME280;39583;54.682;30.662;2024-03-08T06:59:56;99825.09;;;-1.63;85.56
53689;BME280;39583;54.682;30.662;2024-03-08T07:02:24;99817.09;;;-1.52;85.20
53689;BME280;39583;54.682;30.662;2024-03-08T07:04:52;99820.88;;;-1.35;84.82
53689;BME280;39583;54.682;30.662;2024-03-08T07:07:20;99815.63;;;-1.26;84.28
53689;BME280;39583;54.682;30.662;2024-03-08T07:09:48;99816.50;;;-1.15;83.89
53689;BME280;39583;54.682;30.662;2024-03-08T07:12:16;99821.78;;;-1.06;83.46
53689;BME280;39583;54.682;30.662;2024-03-08T07:14:44;99815.94;;;-1.00;83.11
53689;BME280;39583;54.682;30.662;2024-03-08T07:17:12;99812.59;;;-0.92;82.54
53689;BME280;39583;54.682;30.662;2024-03-08T07:19:41;99816.09;;;-0.82;82.43
53689;BME280;39583;54.682;30.662;2024-03-08T07:22:09;99813.59;;;-0.74;81.67
53689;BME280;39583;54.682;30.662;2024-03-08T07:24:37;99813.19;;;-0.69;81.77
53689;BME280;39583;54.682;30.662;2024-03-08T07:27:38;99810.25;;;-0.56;81.29
53689;BME280;39583;54.682;30.662;2024-03-08T07:30:05;99808.16;;;-0.43;80.95
53689;BME280;39583;54.682;30.662;2024-03-08T07:32:34;99811.47;;;-0.32;80.46
53689;BME280;39583;54.682;30.662;2024-03-08T07:35:03;99809.53;;;-0.30;80.34
53689;BME280;39583;54.682;30.662;2024-03-08T07:37:32;99807.56;;;-0.27;80.11
53689;BME280;39583;54.682;30.662;2024-03-08T07:39:59;99810.34;;;-0.19;79.65
53689;BME280;39583;54.682;30.662;2024-03-08T07:42:27;99817.16;;;-0.17;79.65
53689;BME280;39583;54.682;30.662;2024-03-08T07:44:56;99792.41;;;-0.25;79.38
53689;BME280;39583;54.682;30.662;2024-03-08T07:47:23;99808.75;;;-0.03;79.01
53689;BME280;39583;54.682;30.662;2024-03-08T07:49:51;99808.34;;;0.02;78.68
53689;BME280;39583;54.682;30.662;2024-03-08T07:52:19;99811.69;;;0.04;78.07
53689;BME280;39583;54.682;30.662;2024-03-08T07:54:46;99808.88;;;0.15;78.10
53689;BME280;39583;54.682;30.662;2024-03-08T07:57:14;99800.03;;;0.24;77.58
53689;BME280;39583;54.682;30.662;2024-03-08T07:59:41;99802.94;;;0.31;77.39
53689;BME280;39583;54.682;30.662;2024-03-08T08:02:09;99802.66;;;0.34;77.28
53689;BME280;39583;54.682;30.662;2024-03-08T08:04:37;99799.44;;;0.40;77.17
53689;BME280;39583;54.682;30.662;2024-03-08T08:07:06;99800.03;;;0.52;76.77
53689;BME280;39583;54.682;30.662;2024-03-08T08:09:34;99793.03;;;0.61;76.69
53689;BME280;39583;54.682;30.662;2024-03-08T08:12:02;99792.84;;;0.72;76.42
53689;BME280;39583;54.682;30.662;2024-03-08T08:14:30;99792.09;;;0.79;76.11
53689;BME280;39583;54.682;30.662;2024-03-08T08:16:58;99796.78;;;0.85;75.80
53689;BME280;39583;54.682;30.662;2024-03-08T08:19:31;99758.38;;;0.72;75.44
53689;BME280;39583;54.682;30.662;2024-03-08T08:21:59;99783.09;;;0.90;75.40
53689;BME280;39583;54.682;30.662;2024-03-08T08:24:26;99775.38;;;0.97;75.03
53689;BME280;39583;54.682;30.662;2024-03-08T08:26:54;99773.09;;;1.02;74.92
53689;BME280;39583;54.682;30.662;2024-03-08T08:29:22;99776.50;;;1.12;74.36
53689;BME280;39583;54.682;30.662;2024-03-08T08:31:50;99768.91;;;1.17;73.86
53689;BME280;39583;54.682;30.662;2024-03-08T08:34:18;99775.28;;;1.24;74.10
53689;BME280;39583;54.682;30.662;2024-03-08T08:36:46;99774.81;;;1.29;73.32
53689;BME280;39583;54.682;30.662;2024-03-08T08:39:14;99773.16;;;1.28;72.92
53689;BME280;39583;54.682;30.662;2024-03-08T08:41:42;99770.91;;;1.33;72.75
53689;BME280;39583;54.682;30.662;2024-03-08T08:44:09;99773.00;;;1.47;72.83
53689;BME280;39583;54.682;30.662;2024-03-08T08:46:42;99766.75;;;1.56;72.67
53689;BME280;39583;54.682;30.662;2024-03-08T08:49:10;99766.81;;;1.64;72.28
53689;BME280;39583;54.682;30.662;2024-03-08T08:51:38;99769.88;;;1.69;72.26
53689;BME280;39583;54.682;30.662;2024-03-08T08:54:06;99765.09;;;1.81;72.18
53689;BME280;39583;54.682;30.662;2024-03-08T08:56:39;99764.34;;;1.89;71.70
53689;BME280;39583;54.682;30.662;2024-03-08T08:59:07;99763.19;;;1.91;71.21
53689;BME280;39583;54.682;30.662;2024-03-08T09:01:35;99756.22;;;1.90;71.22
53689;BME280;39583;54.682;30.662;2024-03-08T09:04:02;99764.25;;;1.98;70.90
53689;BME280;39583;54.682;30.662;2024-03-08T09:06:30;99763.09;;;2.01;70.49
53689;BME280;39583;54.682;30.662;2024-03-08T09:08:58;99761.31;;;2.10;70.43
53689;BME280;39583;54.682;30.662;2024-03-08T09:11:30;99752.53;;;2.17;70.08
53689;BME280;39583;54.682;30.662;2024-03-08T09:13:58;99758.72;;;2.26;69.74
53689;BME280;39583;54.682;30.662;2024-03-08T09:16:26;99757.25;;;2.31;68.84
53689;BME280;39583;54.682;30.662;2024-03-08T09:18:54;99767.72;;;2.33;68.80
53689;BME280;39583;54.682;30.662;2024-03-08T09:21:21;99766.41;;;2.37;68.37
53689;BME280;39583;54.682;30.662;2024-03-08T09:23:50;99765.44;;;2.38;68.15
53689;BME280;39583;54.682;30.662;2024-03-08T09:26:18;99763.94;;;2.44;67.93
53689;BME280;39583;54.682;30.662;2024-03-08T09:28:55;99769.63;;;2.49;67.45
53689;BME280;39583;54.682;30.662;2024-03-08T09:31:23;99761.31;;;2.52;67.09
53689;BME280;39583;54.682;30.662;2024-03-08T09:33:51;99762.69;;;2.64;67.15
53689;BME280;39583;54.682;30.662;2024-03-08T09:36:19;99762.56;;;2.74;66.57
53689;BME280;39583;54.682;30.662;2024-03-08T09:38:46;99769.38;;;2.76;66.59
53689;BME280;39583;54.682;30.662;2024-03-08T09:41:14;99764.41;;;2.81;66.74
53689;BME280;39583;54.682;30.662;2024-03-08T09:43:42;99762.75;;;2.88;66.38
53689;BME280;39583;54.682;30.662;2024-03-08T09:46:10;99762.75;;;2.88;66.07
53689;BME280;39583;54.682;30.662;2024-03-08T09:48:38;99754.13;;;2.94;65.84
53689;BME280;39583;54.682;30.662;2024-03-08T09:51:09;99746.50;;;3.00;65.45
53689;BME280;39583;54.682;30.662;2024-03-08T09:53:41;99746.50;;;3.08;65.20
53689;BME280;39583;54.682;30.662;2024-03-08T09:56:09;99738.88;;;3.13;65.36
53689;BME280;39583;54.682;30.662;2024-03-08T09:58:39;99740.69;;;3.29;65.10
53689;BME280;39583;54.682;30.662;2024-03-08T10:01:27;99748.31;;;3.48;65.01
53689;BME280;39583;54.682;30.662;2024-03-08T10:03:57;99749.50;;;3.53;64.17
53689;BME280;39583;54.682;30.662;2024-03-08T10:06:25;99750.81;;;3.66;63.79
53689;BME280;39583;54.682;30.662;2024-03-08T10:08:53;99746.31;;;3.82;63.38
53689;BME280;39583;54.682;30.662;2024-03-08T10:11:21;99742.06;;;4.12;63.08
53689;BME280;39583;54.682;30.662;2024-03-08T10:13:49;99737.28;;;4.39;62.26
53689;BME280;39583;54.682;30.662;2024-03-08T10:16:17;99728.41;;;4.78;61.56
53689;BME280;39583;54.682;30.662;2024-03-08T10:18:46;99721.56;;;5.06;60.71
53689;BME280;39583;54.682;30.662;2024-03-08T10:21:14;99714.41;;;5.44;60.56
53689;BME280;39583;54.682;30.662;2024-03-08T10:23:42;99708.84;;;5.83;59.63
53689;BME280;39583;54.682;30.662;2024-03-08T10:26:14;99706.50;;;6.03;58.17
53689;BME280;39583;54.682;30.662;2024-03-08T10:28:45;99731.50;;;5.73;57.47
53689;BME280;39583;54.682;30.662;2024-03-08T10:31:17;99724.56;;;5.49;57.57
53689;BME280;39583;54.682;30.662;2024-03-08T10:33:47;99724.00;;;5.39;57.96
53689;BME280;39583;54.682;30.662;2024-03-08T10:36:15;99699.94;;;5.39;58.06
53689;BME280;39583;54.682;30.662;2024-03-08T10:38:44;99719.88;;;5.51;58.46
53689;BME280;39583;54.682;30.662;2024-03-08T10:41:16;99718.53;;;5.32;58.10
53689;BME280;39583;54.682;30.662;2024-03-08T10:46:41;99728.31;;;5.40;57.68
53689;BME280;39583;54.682;30.662;2024-03-08T10:49:16;99733.75;;;5.46;57.31
53689;BME280;39583;54.682;30.662;2024-03-08T10:51:45;99733.72;;;5.31;56.81
53689;BME280;39583;54.682;30.662;2024-03-08T10:54:14;99731.47;;;5.20;56.65
53689;BME280;39583;54.682;30.662;2024-03-08T10:56:43;99727.81;;;4.98;56.68
53689;BME280;39583;54.682;30.662;2024-03-08T10:59:10;99730.84;;;4.64;56.84
53689;BME280;39583;54.682;30.662;2024-03-08T11:01:40;99729.47;;;4.37;57.80
53689;BME280;39583;54.682;30.662;2024-03-08T11:04:07;99720.72;;;4.21;57.72
53689;BME280;39583;54.682;30.662;2024-03-08T11:09:27;99735.22;;;4.18;57.79
53689;BME280;39583;54.682;30.662;2024-03-08T11:12:28;99731.38;;;4.21;57.64
53689;BME280;39583;54.682;30.662;2024-03-08T11:15:11;99733.22;;;4.20;57.52
53689;BME280;39583;54.682;30.662;2024-03-08T11:20:17;99725.97;;;4.37;57.34
53689;BME280;39583;54.682;30.662;2024-03-08T11:23:00;99724.28;;;4.44;57.15
53689;BME280;39583;54.682;30.662;2024-03-08T11:25:39;99724.59;;;4.41;56.98
53689;BME280;39583;54.682;30.662;2024-03-08T11:28:19;99699.13;;;4.38;57.02
53689;BME280;39583;54.682;30.662;2024-03-08T11:33:28;99711.06;;;4.51;56.77
53689;BME280;39583;54.682;30.662;2024-03-08T11:36:13;99717.94;;;4.45;56.37
53689;BME280;39583;54.682;30.662;2024-03-08T11:38:50;99709.94;;;4.45;56.57
53689;BME280;39583;54.682;30.662;2024-03-08T11:41:24;99712.25;;;4.48;56.88
53689;BME280;39583;54.682;30.662;2024-03-08T11:44:05;99694.28;;;4.42;56.57
53689;BME280;39583;54.682;30.662;2024-03-08T11:46:34;99705.72;;;4.59;56.68
53689;BME280;39583;54.682;30.662;2024-03-08T11:49:01;99694.69;;;4.62;56.36
53689;BME280;39583;54.682;30.662;2024-03-08T11:51:31;99697.13;;;4.71;55.65
53689;BME280;39583;54.682;30.662;2024-03-08T11:54:00;99700.28;;;4.75;55.60
53689;BME280;39583;54.682;30.662;2024-03-08T11:56:28;99705.38;;;4.85;55.51
53689;BME280;39583;54.682;30.662;2024-03-08T11:58:56;99704.78;;;4.97;55.10
53689;BME280;39583;54.682;30.662;2024-03-08T12:01:31;99702.41;;;5.02;54.21
53689;BME280;39583;54.682;30.662;2024-03-08T12:04:00;99705.72;;;5.04;53.96
53689;BME280;39583;54.682;30.662;2024-03-08T12:06:37;99704.44;;;5.00;53.84
53689;BME280;39583;54.682;30.662;2024-03-08T12:09:11;99703.59;;;5.00;52.99
53689;BME280;39583;54.682;30.662;2024-03-08T12:11:40;99689.84;;;4.88;52.84
53689;BME280;39583;54.682;30.662;2024-03-08T12:14:08;99701.41;;;5.03;52.86
53689;BME280;39583;54.682;30.662;2024-03-08T12:16:39;99700.53;;;5.11;52.63
53689;BME280;39583;54.682;30.662;2024-03-08T12:19:06;99699.88;;;5.09;52.52
53689;BME280;39583;54.682;30.662;2024-03-08T12:21:35;99701.22;;;5.05;52.18
53689;BME280;39583;54.682;30.662;2024-03-08T12:24:08;99697.53;;;5.06;52.03
53689;BME280;39583;54.682;30.662;2024-03-08T12:26:38;99693.84;;;5.07;51.96
53689;BME280;39583;54.682;30.662;2024-03-08T12:29:26;99689.00;;;5.11;51.92
53689;BME280;39583;54.682;30.662;2024-03-08T12:31:58;99687.59;;;5.23;51.86
53689;BME280;39583;54.682;30.662;2024-03-08T12:34:28;99683.16;;;5.30;51.68
53689;BME280;39583;54.682;30.662;2024-03-08T12:36:56;99692.97;;;5.38;50.76
53689;BME280;39583;54.682;30.662;2024-03-08T12:39:24;99680.44;;;5.38;50.79
53689;BME280;39583;54.682;30.662;2024-03-08T12:42:13;99693.53;;;5.48;50.71
53689;BME280;39583;54.682;30.662;2024-03-08T12:44:41;99688.66;;;5.51;50.36
53689;BME280;39583;54.682;30.662;2024-03-08T12:47:10;99682.72;;;5.41;50.11
53689;BME280;39583;54.682;30.662;2024-03-08T12:49:45;99688.44;;;5.38;49.93
53689;BME280;39583;54.682;30.662;2024-03-08T12:52:13;99691.56;;;5.42;49.70
53689;BME280;39583;54.682;30.662;2024-03-08T12:54:41;99699.78;;;5.55;49.37
53689;BME280;39583;54.682;30.662;2024-03-08T12:57:10;99696.13;;;5.71;49.05
53689;BME280;39583;54.682;30.662;2024-03-08T12:59:37;99692.19;;;5.81;48.97
53689;BME280;39583;54.682;30.662;2024-03-08T13:02:05;99695.72;;;5.97;49.07
53689;BME280;39583;54.682;30.662;2024-03-08T13:04:38;99699.22;;;6.27;48.55
53689;BME280;39583;54.682;30.662;2024-03-08T13:07:06;99672.19;;;6.21;47.76
53689;BME280;39583;54.682;30.662;2024-03-08T13:09:33;99693.47;;;6.44;47.71
53689;BME280;39583;54.682;30.662;2024-03-08T13:12:05;99691.88;;;6.50;47.36
53689;BME280;39583;54.682;30.662;2024-03-08T13:14:33;99689.59;;;6.47;47.41
53689;BME280;39583;54.682;30.662;2024-03-08T13:17:02;99690.31;;;6.56;47.57
53689;BME280;39583;54.682;30.662;2024-03-08T13:19:31;99683.13;;;6.56;47.21
53689;BME280;39583;54.682;30.662;2024-03-08T13:21:59;99680.44;;;6.56;47.22
53689;BME280;39583;54.682;30.662;2024-03-08T13:24:26;99681.25;;;6.57;47.24
53689;BME280;39583;54.682;30.662;2024-03-08T13:26:54;99691.72;;;6.52;47.33
53689;BME280;39583;54.682;30.662;2024-03-08T13:29:22;99684.91;;;6.34;47.53
53689;BME280;39583;54.682;30.662;2024-03-08T13:31:50;99694.31;;;6.30;48.01
53689;BME280;39583;54.682;30.662;2024-03-08T13:34:19;99692.72;;;6.36;47.85
53689;BME280;39583;54.682;30.662;2024-03-08T13:36:56;99696.44;;;6.20;48.05
53689;BME280;39583;54.682;30.662;2024-03-08T13:39:28;99695.72;;;5.97;48.37
53689;BME280;39583;54.682;30.662;2024-03-08T13:41:56;99702.88;;;5.81;48.83
53689;BME280;39583;54.682;30.662;2024-03-08T13:44:24;99703.25;;;5.78;48.88
53689;BME280;39583;54.682;30.662;2024-03-08T13:46:53;99701.66;;;5.69;49.27
53689;BME280;39583;54.682;30.662;2024-03-08T13:49:21;99699.72;;;5.63;49.43
53689;BME280;39583;54.682;30.662;2024-03-08T13:51:48;99680.91;;;5.42;49.77
53689;BME280;39583;54.682;30.662;2024-03-08T13:54:17;99707.88;;;5.47;49.85
53689;BME280;39583;54.682;30.662;2024-03-08T13:56:44;99707.31;;;5.37;50.05
53689;BME280;39583;54.682;30.662;2024-03-08T13:59:13;99697.34;;;5.30;50.13
53689;BME280;39583;54.682;30.662;2024-03-08T14:01:41;99704.44;;;5.23;50.33
53689;BME280;39583;54.682;30.662;2024-03-08T14:04:12;99702.47;;;5.17;50.59
53689;BME280;39583;54.682;30.662;2024-03-08T14:06:43;99711.84;;;5.13;50.97
53689;BME280;39583;54.682;30.662;2024-03-08T14:09:15;99704.38;;;5.09;50.83
53689;BME280;39583;54.682;30.662;2024-03-08T14:11:44;99705.06;;;5.02;51.04
53689;BME280;39583;54.682;30.662;2024-03-08T14:14:12;99703.66;;;4.92;51.21
53689;BME280;39583;54.682;30.662;2024-03-08T14:16:40;99702.22;;;4.81;51.14
53689;BME280;39583;54.682;30.662;2024-03-08T14:19:07;99706.97;;;4.71;51.23
53689;BME280;39583;54.682;30.662;2024-03-08T14:21:37;99714.47;;;4.67;51.54
53689;BME280;39583;54.682;30.662;2024-03-08T14:24:06;99709.31;;;4.66;51.54
53689;BME280;39583;54.682;30.662;2024-03-08T14:26:34;99718.50;;;4.63;51.89
53689;BME280;39583;54.682;30.662;2024-03-08T14:29:04;99706.56;;;4.51;52.04
53689;BME280;39583;54.682;30.662;2024-03-08T14:31:32;99712.63;;;4.45;52.28
53689;BME280;39583;54.682;30.662;2024-03-08T14:34:01;99713.66;;;4.36;52.13
53689;BME280;39583;54.682;30.662;2024-03-08T14:36:30;99719.69;;;4.30;52.70
53689;BME280;39583;54.682;30.662;2024-03-08T14:38:58;99718.69;;;4.31;52.68
53689;BME280;39583;54.682;30.662;2024-03-08T14:41:26;99723.31;;;4.29;53.00
53689;BME280;39583;54.682;30.662;2024-03-08T14:43:54;99719.06;;;4.20;52.83
53689;BME280;39583;54.682;30.662;2024-03-08T14:46:22;99710.44;;;4.09;53.11
53689;BME280;39583;54.682;30.662;2024-03-08T14:48:50;99721.25;;;4.08;53.26
53689;BME280;39583;54.682;30.662;2024-03-08T14:51:19;99724.75;;;4.00;53.88
53689;BME280;39583;54.682;30.662;2024-03-08T14:53:53;99727.59;;;3.99;53.94
53689;BME280;39583;54.682;30.662;2024-03-08T14:56:21;99713.81;;;3.87;54.00
53689;BME280;39583;54.682;30.662;2024-03-08T14:58:50;99723.31;;;3.81;54.21
53689;BME280;39583;54.682;30.662;2024-03-08T15:01:19;99724.66;;;3.77;54.22
53689;BME280;39583;54.682;30.662;2024-03-08T15:03:51;99735.81;;;3.73;54.76
53689;BME280;39583;54.682;30.662;2024-03-08T15:06:20;99726.69;;;3.67;54.80
53689;BME280;39583;54.682;30.662;2024-03-08T15:08:48;99725.69;;;3.60;55.06
53689;BME280;39583;54.682;30.662;2024-03-08T15:11:15;99729.38;;;3.43;55.28
53689;BME280;39583;54.682;30.662;2024-03-08T15:13:49;99728.03;;;3.22;55.99
53689;BME280;39583;54.682;30.662;2024-03-08T15:16:20;99730.53;;;3.08;56.38
53689;BME280;39583;54.682;30.662;2024-03-08T15:18:51;99732.66;;;2.96;56.61
53689;BME280;39583;54.682;30.662;2024-03-08T15:21:21;99727.50;;;2.86;57.38
53689;BME280;39583;54.682;30.662;2024-03-08T15:23:49;99730.50;;;2.75;57.70
53689;BME280;39583;54.682;30.662;2024-03-08T15:26:19;99738.78;;;2.64;57.97
53689;BME280;39583;54.682;30.662;2024-03-08T15:28:47;99735.56;;;2.52;58.13
53689;BME280;39583;54.682;30.662;2024-03-08T15:31:19;99732.72;;;2.38;58.91
53689;BME280;39583;54.682;30.662;2024-03-08T15:33:48;99748.13;;;2.34;58.75
53689;BME280;39583;54.682;30.662;2024-03-08T15:36:19;99745.59;;;2.24;59.21
53689;BME280;39583;54.682;30.662;2024-03-08T15:38:48;99751.38;;;2.20;59.42
53689;BME280;39583;54.682;30.662;2024-03-08T15:41:19;99751.34;;;2.12;59.75
53689;BME280;39583;54.682;30.662;2024-03-08T15:43:48;99759.44;;;2.02;59.92
53689;BME280;39583;54.682;30.662;2024-03-08T15:46:17;99759.38;;;1.94;60.08
53689;BME280;39583;54.682;30.662;2024-03-08T15:48:50;99760.00;;;1.88;60.46
53689;BME280;39583;54.682;30.662;2024-03-08T15:51:19;99733.63;;;1.60;60.51
53689;BME280;39583;54.682;30.662;2024-03-08T15:53:48;99732.41;;;1.55;60.89
53689;BME280;39583;54.682;30.662;2024-03-08T15:56:21;99776.59;;;1.64;61.33
53689;BME280;39583;54.682;30.662;2024-03-08T15:58:50;99779.34;;;1.54;61.55
53689;BME280;39583;54.682;30.662;2024-03-08T16:01:21;99783.94;;;1.44;62.00
53689;BME280;39583;54.682;30.662;2024-03-08T16:03:51;99783.19;;;1.34;61.95
53689;BME280;39583;54.682;30.662;2024-03-08T16:06:18;99778.47;;;1.28;62.10
53689;BME280;39583;54.682;30.662;2024-03-08T16:08:49;99784.56;;;1.20;62.23
53689;BME280;39583;54.682;30.662;2024-03-08T16:11:17;99791.59;;;1.11;62.71
53689;BME280;39583;54.682;30.662;2024-03-08T16:13:46;99789.16;;;1.00;62.84
53689;BME280;39583;54.682;30.662;2024-03-08T16:16:13;99788.38;;;0.90;63.65
53689;BME280;39583;54.682;30.662;2024-03-08T16:18:42;99796.28;;;0.82;63.49
53689;BME280;39583;54.682;30.662;2024-03-08T16:21:09;99802.16;;;0.76;63.71
53689;BME280;39583;54.682;30.662;2024-03-08T16:23:37;99803.44;;;0.72;63.86
53689;BME280;39583;54.682;30.662;2024-03-08T16:26:05;99803.34;;;0.64;64.14
53689;BME280;39583;54.682;30.662;2024-03-08T16:28:33;99807.56;;;0.56;64.45
53689;BME280;39583;54.682;30.662;2024-03-08T16:31:09;99807.16;;;0.51;65.09
53689;BME280;39583;54.682;30.662;2024-03-08T16:33:39;99810.41;;;0.45;64.83
53689;BME280;39583;54.682;30.662;2024-03-08T16:36:07;99811.25;;;0.46;65.32
53689;BME280;39583;54.682;30.662;2024-03-08T16:38:34;99816.38;;;0.47;65.59
53689;BME280;39583;54.682;30.662;2024-03-08T16:41:04;99818.22;;;0.47;65.36
53689;BME280;39583;54.682;30.662;2024-03-08T16:43:33;99811.25;;;0.46;65.76
53689;BME280;39583;54.682;30.662;2024-03-08T16:46:01;99813.06;;;0.45;65.84
53689;BME280;39583;54.682;30.662;2024-03-08T16:48:31;99817.69;;;0.43;65.92
53689;BME280;39583;54.682;30.662;2024-03-08T16:50:59;99818.81;;;0.41;65.81
53689;BME280;39583;54.682;30.662;2024-03-08T16:53:27;99823.53;;;0.37;65.94
53689;BME280;39583;54.682;30.662;2024-03-08T16:55:55;99826.63;;;0.33;66.55
53689;BME280;39583;54.682;30.662;2024-03-08T16:58:24;99824.31;;;0.20;66.76
53689;BME280;39583;54.682;30.662;2024-03-08T17:00:52;99829.09;;;0.07;67.15
53689;BME280;39583;54.682;30.662;2024-03-08T17:03:20;99822.97;;;-0.04;67.36
53689;BME280;39583;54.682;30.662;2024-03-08T17:05:48;99827.44;;;-0.14;67.54
53689;BME280;39583;54.682;30.662;2024-03-08T17:08:22;99842.94;;;-0.28;67.94
53689;BME280;39583;54.682;30.662;2024-03-08T17:10:51;99836.28;;;-0.42;68.09
53689;BME280;39583;54.682;30.662;2024-03-08T17:13:19;99837.38;;;-0.54;68.58
53689;BME280;39583;54.682;30.662;2024-03-08T17:15:47;99837.81;;;-0.69;68.92
53689;BME280;39583;54.682;30.662;2024-03-08T17:18:16;99842.69;;;-0.83;69.31
53689;BME280;39583;54.682;30.662;2024-03-08T17:20:44;99750.78;;;-1.49;69.04
53689;BME280;39583;54.682;30.662;2024-03-08T17:23:13;99839.88;;;-1.01;69.55
53689;BME280;39583;54.682;30.662;2024-03-08T17:25:43;99816.31;;;-1.24;69.74
53689;BME280;39583;54.682;30.662;2024-03-08T17:28:11;99836.66;;;-1.14;70.00
53689;BME280;39583;54.682;30.662;2024-03-08T17:30:39;99829.25;;;-1.21;69.98
53689;BME280;39583;54.682;30.662;2024-03-08T17:33:11;99838.00;;;-1.20;70.33
53689;BME280;39583;54.682;30.662;2024-03-08T17:35:44;99848.59;;;-1.20;70.64
53689;BME280;39583;54.682;30.662;2024-03-08T17:38:12;99850.81;;;-1.25;70.33
53689;BME280;39583;54.682;30.662;2024-03-08T17:40:41;99851.91;;;-1.28;70.45
53689;BME280;39583;54.682;30.662;2024-03-08T17:43:11;99856.50;;;-1.30;70.86
53689;BME280;39583;54.682;30.662;2024-03-08T17:45:41;99852.16;;;-1.31;70.70
53689;BME280;39583;54.682;30.662;2024-03-08T17:48:13;99844.78;;;-1.37;70.87
53689;BME280;39583;54.682;30.662;2024-03-08T17:50:46;99841.97;;;-1.45;70.94
53689;BME280;39583;54.682;30.662;2024-03-08T17:53:17;99847.84;;;-1.41;71.06
53689;BME280;39583;54.682;30.662;2024-03-08T17:55:46;99829.00;;;-1.58;71.21
53689;BME280;39583;54.682;30.662;2024-03-08T17:58:19;99852.81;;;-1.48;71.29
53689;BME280;39583;54.682;30.662;2024-03-08T18:00:47;99852.53;;;-1.55;71.50
53689;BME280;39583;54.682;30.662;2024-03-08T18:03:20;99853.03;;;-1.61;71.89
53689;BME280;39583;54.682;30.662;2024-03-08T18:05:57;99855.81;;;-1.62;72.26
53689;BME280;39583;54.682;30.662;2024-03-08T18:08:24;99859.44;;;-1.63;72.06
53689;BME280;39583;54.682;30.662;2024-03-08T18:10:52;99863.59;;;-1.61;72.80
53689;BME280;39583;54.682;30.662;2024-03-08T18:13:20;99868.75;;;-1.59;72.77
53689;BME280;39583;54.682;30.662;2024-03-08T18:15:49;99868.50;;;-1.56;72.52
53689;BME280;39583;54.682;30.662;2024-03-08T18:18:16;99867.25;;;-1.52;72.66
53689;BME280;39583;54.682;30.662;2024-03-08T18:20:45;99861.16;;;-1.53;72.86
53689;BME280;39583;54.682;30.662;2024-03-08T18:23:17;99863.38;;;-1.48;73.05
53689;BME280;39583;54.682;30.662;2024-03-08T18:25:49;99870.88;;;-1.43;73.14
53689;BME280;39583;54.682;30.662;2024-03-08T18:28:17;99866.34;;;-1.41;73.18
53689;BME280;39583;54.682;30.662;2024-03-08T18:30:46;99863.69;;;-1.41;72.95
53689;BME280;39583;54.682;30.662;2024-03-08T18:33:17;99871.16;;;-1.46;73.36
53689;BME280;39583;54.682;30.662;2024-03-08T18:35:46;99878.44;;;-1.39;73.10
53689;BME280;39583;54.682;30.662;2024-03-08T18:38:15;99874.41;;;-1.43;73.15
53689;BME280;39583;54.682;30.662;2024-03-08T18:40:47;99868.16;;;-1.42;73.33
53689;BME280;39583;54.682;30.662;2024-03-08T18:43:15;99885.66;;;-1.31;73.17
53689;BME280;39583;54.682;30.662;2024-03-08T18:45:44;99894.56;;;-1.32;73.47
53689;BME280;39583;54.682;30.662;2024-03-08T18:48:13;99888.03;;;-1.38;73.30
53689;BME280;39583;54.682;30.662;2024-03-08T18:50:41;99894.16;;;-1.37;73.42
53689;BME280;39583;54.682;30.662;2024-03-08T18:53:13;99895.25;;;-1.40;73.37